La rose des vents
Donnes mto: Semaine 27/08/07 - 02/09/07 (S 35)
Date Horaire Temp. E. Hum. E. P.atmo. Pluie Vent 1mn Direction Ensoleilleme Ev.Tr. Solaire P. de rose Temp au vent Rafales
27/08/2007 00:00 23,6 C 49 % 1018,4 hPa 0,0 l/m 0,3 km/h (0 Bft) N-NO 0,00 h 0,051 mm 0 W/m 12,1 C 23,6 C 0,8 km/h (0 Bft)
27/08/2007 01:00 23,8 C 47 % 1018,1 hPa 0,0 l/m 0,7 km/h (0 Bft) N-NO 0,00 h 0,051 mm 0 W/m 11,8 C 23,8 C 1,6 km/h (1 Bft)
27/08/2007 02:00 23,3 C 47 % 1017,8 hPa 0,0 l/m 0,1 km/h (0 Bft) N-NO 0,00 h 0,051 mm 0 W/m 11,5 C 23,3 C 0,3 km/h (0 Bft)
27/08/2007 03:00 23,6 C 46 % 1017,4 hPa 0,0 l/m 3,0 km/h (1 Bft) O-NO 0,00 h 0,051 mm 0 W/m 11,4 C 23,6 C 5,0 km/h (1 Bft)
27/08/2007 04:00 24,0 C 45 % 1017,1 hPa 0,0 l/m 3,9 km/h (1 Bft) NO 0,00 h 0,076 mm 0 W/m 11,3 C 24,0 C 5,6 km/h (1 Bft)
27/08/2007 05:00 24,3 C 45 % 1016,8 hPa 0,0 l/m 4,7 km/h (1 Bft) NO 0,00 h 0,076 mm 0 W/m 11,7 C 24,3 C 6,2 km/h (2 Bft)
27/08/2007 06:00 24,1 C 48 % 1016,7 hPa 0,0 l/m 4,1 km/h (1 Bft) NO 0,02 h 0,102 mm 7 W/m 12,3 C 24,1 C 6,1 km/h (2 Bft)
27/08/2007 07:00 24,4 C 49 % 1017,0 hPa 0,0 l/m 3,4 km/h (1 Bft) NO 0,08 h 0,051 mm 42 W/m 12,9 C 24,4 C 5,4 km/h (1 Bft)
27/08/2007 08:00 26,6 C 45 % 1017,3 hPa 0,0 l/m 1,0 km/h (0 Bft) NO 0,28 h 0,076 mm 148 W/m 13,6 C 26,6 C 2,3 km/h (1 Bft)
27/08/2007 09:00 28,8 C 38 % 1017,5 hPa 0,0 l/m 3,6 km/h (1 Bft) S 1,00 h 0,127 mm 368 W/m 13,0 C 28,8 C 5,6 km/h (1 Bft)
27/08/2007 10:00 31,0 C 35 % 1017,5 hPa 0,0 l/m 4,7 km/h (1 Bft) E 1,00 h 0,279 mm 527 W/m 13,5 C 31,0 C 7,7 km/h (2 Bft)
27/08/2007 11:00 32,1 C 33 % 1017,4 hPa 0,0 l/m 7,4 km/h (2 Bft) E 1,00 h 0,432 mm 642 W/m 13,7 C 32,1 C 11,7 km/h (2 Bft)
27/08/2007 12:00 33,2 C 31 % 1017,0 hPa 0,0 l/m 9,8 km/h (2 Bft) E 1,00 h 0,533 mm 712 W/m 13,8 C 33,2 C 15,3 km/h (3 Bft)
27/08/2007 13:00 32,4 C 32 % 1016,6 hPa 0,0 l/m 9,8 km/h (2 Bft) E 0,95 h 0,610 mm 713 W/m 13,7 C 32,4 C 14,4 km/h (3 Bft)
27/08/2007 14:00 33,0 C 33 % 1016,0 hPa 0,0 l/m 8,9 km/h (2 Bft) E 1,00 h 0,610 mm 738 W/m 14,4 C 33,0 C 14,6 km/h (3 Bft)
27/08/2007 15:00 32,3 C 36 % 1015,3 hPa 0,0 l/m 8,7 km/h (2 Bft) E 0,93 h 0,610 mm 632 W/m 15,1 C 32,3 C 14,4 km/h (3 Bft)
27/08/2007 16:00 31,6 C 37 % 1014,7 hPa 0,0 l/m 7,5 km/h (2 Bft) S 1,00 h 0,533 mm 530 W/m 15,1 C 31,6 C 12,7 km/h (3 Bft)
27/08/2007 17:00 30,6 C 41 % 1014,4 hPa 0,0 l/m 6,1 km/h (2 Bft) E 1,00 h 0,457 mm 384 W/m 15,7 C 30,6 C 10,1 km/h (2 Bft)
27/08/2007 18:00 29,6 C 44 % 1014,3 hPa 0,0 l/m 3,1 km/h (1 Bft) E-SE 0,85 h 0,330 mm 200 W/m 16,1 C 29,6 C 6,0 km/h (2 Bft)
27/08/2007 19:00 27,6 C 50 % 1013,9 hPa 0,0 l/m 1,8 km/h (1 Bft) S 0,17 h 0,178 mm 59 W/m 16,1 C 27,6 C 3,9 km/h (1 Bft)
27/08/2007 20:00 25,5 C 58 % 1013,9 hPa 0,0 l/m 0,3 km/h (0 Bft) S 0,13 h 0,076 mm 12 W/m 16,6 C 25,5 C 0,8 km/h (0 Bft)
27/08/2007 21:00 24,0 C 63 % 1014,3 hPa 0,0 l/m 0,1 km/h (0 Bft) S 0,00 h 0,025 mm 0 W/m 16,6 C 24,0 C 0,4 km/h (0 Bft)
27/08/2007 22:00 23,6 C 64 % 1014,2 hPa 0,0 l/m 0,8 km/h (0 Bft) O 0,00 h 0,051 mm 0 W/m 16,3 C 23,6 C 2,1 km/h (1 Bft)
27/08/2007 23:00 23,3 C 64 % 1013,7 hPa 0,0 l/m 1,4 km/h (1 Bft) O 0,00 h 0,051 mm 0 W/m 16,1 C 23,3 C 2,9 km/h (1 Bft)
28/08/2007 00:00 23,3 C 63 % 1013,7 hPa 0,0 l/m 2,0 km/h (1 Bft) O 0,00 h 0,051 mm 0 W/m 15,9 C 23,3 C 3,5 km/h (1 Bft)
28/08/2007 01:00 23,2 C 62 % 1013,4 hPa 0,0 l/m 2,6 km/h (1 Bft) O 0,00 h 0,051 mm 0 W/m 15,6 C 23,2 C 4,3 km/h (1 Bft)
28/08/2007 02:00 22,8 C 63 % 1013,0 hPa 0,0 l/m 2,2 km/h (1 Bft) NO 0,00 h 0,051 mm 0 W/m 15,4 C 22,8 C 3,8 km/h (1 Bft)
28/08/2007 03:00 22,6 C 63 % 1012,5 hPa 0,0 l/m 2,9 km/h (1 Bft) NO 0,00 h 0,051 mm 0 W/m 15,2 C 22,6 C 4,4 km/h (1 Bft)
28/08/2007 04:00 22,6 C 62 % 1012,2 hPa 0,0 l/m 3,4 km/h (1 Bft) O-NO 0,00 h 0,051 mm 0 W/m 14,8 C 22,6 C 4,9 km/h (1 Bft)
28/08/2007 05:00 22,2 C 62 % 1012,1 hPa 0,0 l/m 3,1 km/h (1 Bft) NO 0,00 h 0,051 mm 0 W/m 14,6 C 22,2 C 4,4 km/h (1 Bft)
28/08/2007 06:00 22,4 C 61 % 1011,9 hPa 0,0 l/m 3,3 km/h (1 Bft) NO 0,00 h 0,051 mm 7 W/m 14,6 C 22,4 C 4,7 km/h (1 Bft)
28/08/2007 07:00 22,9 C 60 % 1012,3 hPa 0,0 l/m 1,5 km/h (1 Bft) NO 0,03 h 0,025 mm 40 W/m 14,6 C 22,9 C 2,9 km/h (1 Bft)
28/08/2007 08:00 24,9 C 54 % 1012,8 hPa 0,0 l/m 0,2 km/h (0 Bft) SO 0,35 h 0,051 mm 149 W/m 14,8 C 24,9 C 0,7 km/h (0 Bft)
28/08/2007 09:00 27,8 C 47 % 1012,6 hPa 0,0 l/m 1,6 km/h (1 Bft) SE 0,93 h 0,102 mm 353 W/m 15,3 C 27,8 C 3,4 km/h (1 Bft)
28/08/2007 10:00 29,7 C 41 % 1012,7 hPa 0,0 l/m 5,7 km/h (1 Bft) E 0,98 h 0,254 mm 524 W/m 15,1 C 29,7 C 8,7 km/h (2 Bft)
28/08/2007 11:00 30,1 C 42 % 1012,7 hPa 0,0 l/m 8,9 km/h (2 Bft) E 1,00 h 0,406 mm 653 W/m 15,6 C 30,1 C 12,7 km/h (3 Bft)
28/08/2007 12:00 29,8 C 44 % 1012,7 hPa 0,0 l/m 11,2 km/h (2 Bft) E 1,00 h 0,533 mm 720 W/m 16,3 C 29,8 C 16,0 km/h (3 Bft)
28/08/2007 13:00 29,4 C 46 % 1012,3 hPa 0,0 l/m 9,0 km/h (2 Bft) E 1,00 h 0,584 mm 750 W/m 16,6 C 29,4 C 14,1 km/h (3 Bft)
28/08/2007 14:00 29,5 C 47 % 1012,0 hPa 0,0 l/m 9,0 km/h (2 Bft) E 1,00 h 0,584 mm 727 W/m 17,1 C 29,5 C 13,4 km/h (3 Bft)
28/08/2007 15:00 29,6 C 49 % 1011,3 hPa 0,0 l/m 8,3 km/h (2 Bft) E 0,97 h 0,559 mm 636 W/m 17,9 C 29,6 C 12,7 km/h (3 Bft)
28/08/2007 16:00 28,9 C 53 % 1011,1 hPa 0,0 l/m 8,6 km/h (2 Bft) E 1,00 h 0,508 mm 530 W/m 18,3 C 28,9 C 13,3 km/h (3 Bft)
28/08/2007 17:00 27,7 C 51 % 1011,0 hPa 0,0 l/m 7,8 km/h (2 Bft) E 1,00 h 0,432 mm 372 W/m 16,6 C 27,7 C 12,2 km/h (2 Bft)
28/08/2007 18:00 26,2 C 61 % 1010,9 hPa 0,0 l/m 4,8 km/h (1 Bft) E 1,00 h 0,305 mm 206 W/m 18,0 C 26,2 C 8,1 km/h (2 Bft)
28/08/2007 19:00 24,7 C 69 % 1010,7 hPa 0,0 l/m 0,9 km/h (0 Bft) E-SE 0,10 h 0,178 mm 58 W/m 18,6 C 24,7 C 2,5 km/h (1 Bft)
28/08/2007 20:00 22,9 C 77 % 1010,8 hPa 0,0 l/m 0,5 km/h (0 Bft) E 0,02 h 0,051 mm 8 W/m 18,6 C 22,9 C 1,2 km/h (1 Bft)
28/08/2007 21:00 22,1 C 82 % 1011,5 hPa 0,0 l/m 3,7 km/h (1 Bft) N-NE 0,00 h 0,000 mm 0 W/m 18,9 C 22,1 C 5,7 km/h (1 Bft)
28/08/2007 22:00 21,6 C 86 % 1011,7 hPa 0,0 l/m 2,6 km/h (1 Bft) NE 0,00 h 0,025 mm 0 W/m 19,1 C 21,6 C 4,5 km/h (1 Bft)
28/08/2007 23:00 21,1 C 85 % 1011,6 hPa 0,0 l/m 0,4 km/h (0 Bft) N 0,00 h 0,025 mm 0 W/m 18,5 C 21,1 C 1,2 km/h (1 Bft)
29/08/2007 00:00 20,8 C 82 % 1011,6 hPa 0,0 l/m 1,1 km/h (1 Bft) N-NO 0,00 h 0,025 mm 0 W/m 17,7 C 20,8 C 1,9 km/h (1 Bft)
29/08/2007 01:00 20,5 C 82 % 1011,6 hPa 0,0 l/m 1,1 km/h (1 Bft) N-NO 0,00 h 0,025 mm 0 W/m 17,3 C 20,5 C 2,5 km/h (1 Bft)
29/08/2007 02:00 20,1 C 82 % 1011,4 hPa 0,0 l/m 0,1 km/h (0 Bft) N 0,00 h 0,025 mm 0 W/m 17,0 C 20,1 C 0,4 km/h (0 Bft)
29/08/2007 03:00 20,1 C 85 % 1011,3 hPa 0,0 l/m 0,8 km/h (0 Bft) N-NO 0,00 h 0,025 mm 0 W/m 17,6 C 20,1 C 2,0 km/h (1 Bft)
29/08/2007 04:00 20,3 C 87 % 1011,3 hPa 0,0 l/m 1,1 km/h (1 Bft) N-NO 0,00 h 0,025 mm 0 W/m 18,1 C 20,3 C 1,9 km/h (1 Bft)
29/08/2007 05:00 20,1 C 89 % 1010,3 hPa 0,0 l/m 0,9 km/h (0 Bft) N 0,00 h 0,025 mm 0 W/m 18,2 C 20,1 C 1,7 km/h (1 Bft)
29/08/2007 06:00 20,2 C 90 % 1010,3 hPa 0,0 l/m 0,3 km/h (0 Bft) N 0,00 h 0,025 mm 5 W/m 18,5 C 20,2 C 0,6 km/h (0 Bft)
29/08/2007 07:00 20,0 C 91 % 1010,8 hPa 0,0 l/m 0,9 km/h (0 Bft) N 0,18 h 0,000 mm 50 W/m 18,5 C 20,0 C 2,2 km/h (1 Bft)
29/08/2007 08:00 21,6 C 88 % 1010,6 hPa 0,0 l/m 4,0 km/h (1 Bft) N-NE 0,23 h 0,025 mm 130 W/m 19,5 C 21,6 C 6,5 km/h (2 Bft)
29/08/2007 09:00 23,1 C 81 % 1010,2 hPa 0,0 l/m 4,7 km/h (1 Bft) N-NE 0,28 h 0,102 mm 231 W/m 19,5 C 23,1 C 7,6 km/h (2 Bft)
29/08/2007 10:00 24,3 C 72 % 1009,9 hPa 0,0 l/m 3,5 km/h (1 Bft) S 0,02 h 0,152 mm 202 W/m 18,9 C 24,3 C 6,2 km/h (2 Bft)
29/08/2007 11:00 26,3 C 64 % 1010,2 hPa 0,0 l/m 5,8 km/h (2 Bft) S-SE 0,85 h 0,152 mm 557 W/m 19,0 C 26,3 C 9,4 km/h (2 Bft)
29/08/2007 12:00 27,9 C 60 % 1009,9 hPa 0,0 l/m 8,6 km/h (2 Bft) E 0,70 h 0,406 mm 593 W/m 19,3 C 27,9 C 13,0 km/h (3 Bft)
29/08/2007 13:00 26,5 C 65 % 1009,9 hPa 0,0 l/m 8,0 km/h (2 Bft) E-SE 0,68 h 0,457 mm 643 W/m 19,4 C 26,5 C 13,3 km/h (3 Bft)
29/08/2007 14:00 27,8 C 61 % 1010,2 hPa 0,0 l/m 7,7 km/h (2 Bft) E 0,75 h 0,457 mm 641 W/m 19,6 C 27,8 C 11,7 km/h (2 Bft)
29/08/2007 15:00 26,6 C 65 % 1009,3 hPa 0,0 l/m 8,7 km/h (2 Bft) E 0,37 h 0,457 mm 357 W/m 19,4 C 26,6 C 13,7 km/h (3 Bft)
29/08/2007 16:00 24,7 C 76 % 1009,1 hPa 0,0 l/m 7,5 km/h (2 Bft) E 0,45 h 0,279 mm 317 W/m 20,2 C 24,7 C 12,5 km/h (3 Bft)
29/08/2007 17:00 24,8 C 77 % 1008,7 hPa 0,0 l/m 6,9 km/h (2 Bft) E 0,23 h 0,229 mm 183 W/m 20,5 C 24,8 C 11,9 km/h (2 Bft)
29/08/2007 18:00 23,6 C 85 % 1008,7 hPa 0,0 l/m 10,7 km/h (2 Bft) E 0,05 h 0,152 mm 63 W/m 21,0 C 23,6 C 15,4 km/h (3 Bft)
29/08/2007 19:00 22,7 C 89 % 1007,3 hPa 0,0 l/m 14,0 km/h (3 Bft) E-NE 0,00 h 0,076 mm 13 W/m 20,7 C 22,7 C 20,2 km/h (4 Bft)
29/08/2007 20:00 22,4 C 89 % 1007,6 hPa 0,0 l/m 6,2 km/h (2 Bft) S-SE 0,00 h 0,051 mm 5 W/m 20,4 C 22,4 C 9,2 km/h (2 Bft)
29/08/2007 21:00 22,2 C 87 % 1007,2 hPa 0,0 l/m 2,8 km/h (1 Bft) N 0,00 h 0,025 mm 0 W/m 20,0 C 22,2 C 5,5 km/h (1 Bft)
29/08/2007 22:00 22,2 C 80 % 1007,1 hPa 0,0 l/m 4,5 km/h (1 Bft) N-NO 0,00 h 0,025 mm 0 W/m 18,5 C 22,2 C 7,6 km/h (2 Bft)
29/08/2007 23:00 22,2 C 72 % 1006,8 hPa 0,0 l/m 1,8 km/h (1 Bft) N 0,00 h 0,025 mm 0 W/m 16,9 C 22,2 C 4,1 km/h (1 Bft)
30/08/2007 00:00 21,8 C 73 % 1006,4 hPa 0,0 l/m 1,0 km/h (0 Bft) NE 0,00 h 0,051 mm 0 W/m 16,7 C 21,8 C 2,2 km/h (1 Bft)
30/08/2007 01:00 21,2 C 73 % 1005,9 hPa 0,0 l/m 2,1 km/h (1 Bft) NO 0,00 h 0,025 mm 0 W/m 16,1 C 21,2 C 3,8 km/h (1 Bft)
30/08/2007 02:00 20,6 C 74 % 1005,4 hPa 0,0 l/m 0,1 km/h (0 Bft) NO 0,00 h 0,025 mm 0 W/m 15,7 C 20,6 C 0,3 km/h (0 Bft)
30/08/2007 03:00 20,3 C 78 % 1005,6 hPa 0,0 l/m 1,5 km/h (1 Bft) NO 0,00 h 0,025 mm 0 W/m 16,3 C 20,3 C 2,1 km/h (1 Bft)
30/08/2007 04:00 20,3 C 82 % 1005,1 hPa 0,0 l/m 6,9 km/h (2 Bft) O 0,00 h 0,025 mm 0 W/m 17,1 C 20,3 C 9,2 km/h (2 Bft)
30/08/2007 05:00 20,2 C 83 % 1005,4 hPa 0,0 l/m 9,5 km/h (2 Bft) O 0,00 h 0,051 mm 0 W/m 17,1 C 20,2 C 14,1 km/h (3 Bft)
30/08/2007 06:00 20,4 C 80 % 1005,6 hPa 0,0 l/m 11,1 km/h (2 Bft) O 0,00 h 0,051 mm 5 W/m 16,8 C 20,4 C 16,4 km/h (3 Bft)
30/08/2007 07:00 20,8 C 76 % 1006,2 hPa 0,0 l/m 13,0 km/h (3 Bft) O-SO 0,00 h 0,051 mm 33 W/m 16,4 C 20,8 C 18,2 km/h (3 Bft)
30/08/2007 08:00 22,8 C 75 % 1006,5 hPa 0,0 l/m 7,9 km/h (2 Bft) O 0,30 h 0,076 mm 137 W/m 18,1 C 22,8 C 12,1 km/h (2 Bft)
30/08/2007 09:00 24,9 C 68 % 1006,5 hPa 0,0 l/m 9,2 km/h (2 Bft) SO 1,00 h 0,127 mm 336 W/m 18,6 C 24,9 C 13,1 km/h (3 Bft)
30/08/2007 10:00 26,6 C 58 % 1006,2 hPa 0,0 l/m 10,5 km/h (2 Bft) SO 1,00 h 0,254 mm 496 W/m 17,6 C 26,6 C 15,5 km/h (3 Bft)
30/08/2007 11:00 28,4 C 50 % 1005,9 hPa 0,0 l/m 11,5 km/h (2 Bft) SO 1,00 h 0,406 mm 624 W/m 16,8 C 28,4 C 17,4 km/h (3 Bft)
30/08/2007 12:00 30,3 C 43 % 1005,3 hPa 0,0 l/m 15,8 km/h (3 Bft) S-SO 1,00 h 0,508 mm 705 W/m 16,4 C 30,3 C 22,6 km/h (4 Bft)
30/08/2007 13:00 30,1 C 45 % 1004,7 hPa 0,0 l/m 25,4 km/h (4 Bft) S 1,00 h 0,635 mm 741 W/m 16,8 C 30,1 C 33,7 km/h (5 Bft)
30/08/2007 14:00 30,7 C 40 % 1004,4 hPa 0,0 l/m 22,5 km/h (4 Bft) S 1,00 h 0,737 mm 722 W/m 15,7 C 30,7 C 31,0 km/h (5 Bft)
30/08/2007 15:00 30,5 C 42 % 1004,2 hPa 0,0 l/m 19,5 km/h (3 Bft) S-SE 1,00 h 0,737 mm 636 W/m 16,0 C 30,5 C 26,3 km/h (4 Bft)
30/08/2007 16:00 31,3 C 38 % 1003,5 hPa 0,0 l/m 16,0 km/h (3 Bft) S-SE 0,92 h 0,635 mm 504 W/m 15,4 C 31,3 C 22,8 km/h (4 Bft)
30/08/2007 17:00 28,1 C 55 % 1003,6 hPa 0,0 l/m 11,1 km/h (2 Bft) NE 0,08 h 0,508 mm 120 W/m 18,1 C 28,1 C 16,6 km/h (3 Bft)
30/08/2007 18:00 26,0 C 66 % 1004,3 hPa 0,0 l/m 12,5 km/h (3 Bft) E-NE 0,90 h 0,178 mm 189 W/m 19,1 C 26,0 C 17,5 km/h (3 Bft)
30/08/2007 19:00 24,0 C 76 % 1004,6 hPa 0,0 l/m 9,1 km/h (2 Bft) E 0,37 h 0,203 mm 63 W/m 19,5 C 24,0 C 13,2 km/h (3 Bft)
30/08/2007 20:00 22,2 C 85 % 1005,3 hPa 0,0 l/m 9,8 km/h (2 Bft) E 0,05 h 0,076 mm 8 W/m 19,6 C 22,2 C 13,9 km/h (3 Bft)
30/08/2007 21:00 21,5 C 89 % 1005,8 hPa 0,0 l/m 5,1 km/h (1 Bft) E 0,00 h 0,025 mm 0 W/m 19,6 C 21,5 C 7,8 km/h (2 Bft)
30/08/2007 22:00 21,1 C 91 % 1005,9 hPa 0,0 l/m 2,1 km/h (1 Bft) E 0,00 h 0,025 mm 0 W/m 19,6 C 21,1 C 4,0 km/h (1 Bft)
30/08/2007 23:00 20,9 C 92 % 1006,0 hPa 0,0 l/m 1,5 km/h (1 Bft) E-SE 0,00 h 0,025 mm 0 W/m 19,4 C 20,9 C 3,4 km/h (1 Bft)
31/08/2007 00:00 21,1 C 93 % 1006,6 hPa 0,4 l/m 3,2 km/h (1 Bft) E 0,00 h 0,025 mm 0 W/m 19,9 C 21,1 C 5,5 km/h (1 Bft)
31/08/2007 01:00 21,2 C 93 % 1006,8 hPa 0,0 l/m 1,6 km/h (1 Bft) E 0,00 h 0,025 mm 0 W/m 20,0 C 21,2 C 3,2 km/h (1 Bft)
31/08/2007 02:00 21,2 C 93 % 1006,8 hPa 0,0 l/m 1,3 km/h (1 Bft) E-SE 0,00 h 0,025 mm 0 W/m 20,1 C 21,2 C 2,9 km/h (1 Bft)
31/08/2007 03:00 21,2 C 91 % 1006,8 hPa 0,0 l/m 8,0 km/h (2 Bft) E 0,00 h 0,025 mm 0 W/m 19,7 C 21,2 C 11,7 km/h (2 Bft)
31/08/2007 04:00 21,0 C 88 % 1007,4 hPa 0,0 l/m 12,2 km/h (2 Bft) E 0,00 h 0,025 mm 0 W/m 19,0 C 21,0 C 17,6 km/h (3 Bft)
31/08/2007 05:00 20,4 C 88 % 1008,0 hPa 0,0 l/m 8,5 km/h (2 Bft) E 0,00 h 0,051 mm 0 W/m 18,4 C 20,4 C 12,5 km/h (3 Bft)
31/08/2007 06:00 20,1 C 89 % 1008,3 hPa 0,2 l/m 3,2 km/h (1 Bft) E 0,00 h 0,025 mm 5 W/m 18,2 C 20,1 C 5,2 km/h (1 Bft)
31/08/2007 07:00 19,9 C 88 % 1008,9 hPa 0,0 l/m 4,3 km/h (1 Bft) E-NE 0,00 h 0,000 mm 19 W/m 17,9 C 19,9 C 6,3 km/h (2 Bft)
31/08/2007 08:00 20,5 C 85 % 1009,5 hPa 0,4 l/m 3,0 km/h (1 Bft) E 0,00 h 0,025 mm 70 W/m 17,9 C 20,5 C 5,7 km/h (1 Bft)
31/08/2007 09:00 21,4 C 80 % 1009,8 hPa 0,0 l/m 5,3 km/h (1 Bft) E 0,15 h 0,051 mm 171 W/m 17,8 C 21,4 C 10,1 km/h (2 Bft)
31/08/2007 10:00 22,1 C 76 % 1010,5 hPa 0,0 l/m 7,2 km/h (2 Bft) E 0,02 h 0,127 mm 200 W/m 17,6 C 22,1 C 13,4 km/h (3 Bft)
31/08/2007 11:00 22,1 C 74 % 1011,1 hPa 0,0 l/m 6,2 km/h (2 Bft) E 0,00 h 0,152 mm 169 W/m 17,3 C 22,1 C 11,2 km/h (2 Bft)
31/08/2007 12:00 21,9 C 74 % 1011,3 hPa 0,0 l/m 4,9 km/h (1 Bft) E 0,00 h 0,127 mm 109 W/m 17,0 C 21,9 C 8,4 km/h (2 Bft)
31/08/2007 13:00 21,4 C 75 % 1011,5 hPa 0,0 l/m 3,9 km/h (1 Bft) S-SE 0,00 h 0,102 mm 85 W/m 16,8 C 21,4 C 7,3 km/h (2 Bft)
31/08/2007 14:00 22,7 C 70 % 1011,4 hPa 0,0 l/m 3,5 km/h (1 Bft) E 0,20 h 0,076 mm 359 W/m 16,9 C 22,7 C 6,0 km/h (2 Bft)
31/08/2007 15:00 24,2 C 65 % 1011,0 hPa 0,0 l/m 4,9 km/h (1 Bft) E-SE 0,57 h 0,229 mm 470 W/m 17,2 C 24,2 C 8,1 km/h (2 Bft)
31/08/2007 16:00 24,8 C 62 % 1010,5 hPa 0,0 l/m 14,0 km/h (3 Bft) S 0,80 h 0,330 mm 463 W/m 17,1 C 24,8 C 19,6 km/h (3 Bft)
31/08/2007 17:00 24,7 C 62 % 1010,5 hPa 0,0 l/m 15,5 km/h (3 Bft) S-SO 0,95 h 0,381 mm 365 W/m 16,9 C 24,7 C 20,8 km/h (4 Bft)
31/08/2007 18:00 22,8 C 68 % 1010,7 hPa 0,0 l/m 13,4 km/h (3 Bft) S-SO 0,17 h 0,330 mm 91 W/m 16,6 C 22,8 C 18,0 km/h (3 Bft)
31/08/2007 19:00 21,9 C 72 % 1011,0 hPa 0,0 l/m 9,1 km/h (2 Bft) S-SO 0,27 h 0,127 mm 52 W/m 16,7 C 21,9 C 12,6 km/h (3 Bft)
31/08/2007 20:00 20,4 C 78 % 1011,7 hPa 0,0 l/m 0,5 km/h (0 Bft) S-SO 0,02 h 0,076 mm 6 W/m 16,4 C 20,4 C 1,1 km/h (1 Bft)
31/08/2007 21:00 19,6 C 80 % 1012,4 hPa 0,0 l/m 1,5 km/h (1 Bft) O-NO 0,00 h 0,000 mm 0 W/m 16,0 C 19,6 C 2,7 km/h (1 Bft)
31/08/2007 22:00 19,0 C 82 % 1012,5 hPa 0,0 l/m 1,7 km/h (1 Bft) O-NO 0,00 h 0,025 mm 0 W/m 15,9 C 19,0 C 3,8 km/h (1 Bft)
31/08/2007 23:00 18,3 C 84 % 1012,7 hPa 0,0 l/m 0,4 km/h (0 Bft) N 0,00 h 0,050 mm 0 W/m 15,6 C 18,3 C 1,7 km/h (1 Bft)
01/09/2007 00:00 18,3 C 87 % 1012,9 hPa 0,0 l/m 2,1 km/h (1 Bft) O-NO 0,00 h 0,000 mm 0 W/m 16,1 C 18,3 C 3,2 km/h (1 Bft)
01/09/2007 01:00 18,2 C 88 % 1013,1 hPa 0,0 l/m 5,1 km/h (1 Bft) O 0,00 h 0,025 mm 0 W/m 16,2 C 18,2 C 6,5 km/h (2 Bft)
01/09/2007 02:00 18,3 C 87 % 1013,0 hPa 0,0 l/m 4,9 km/h (1 Bft) O 0,00 h 0,025 mm 0 W/m 16,0 C 18,3 C 6,5 km/h (2 Bft)
01/09/2007 03:00 17,8 C 84 % 1013,1 hPa 0,0 l/m 6,8 km/h (2 Bft) O-NO 0,00 h 0,025 mm 0 W/m 15,1 C 17,8 C 8,5 km/h (2 Bft)
01/09/2007 04:00 17,5 C 82 % 1013,1 hPa 0,0 l/m 5,9 km/h (2 Bft) O-NO 0,00 h 0,025 mm 0 W/m 14,4 C 17,5 C 8,6 km/h (2 Bft)
01/09/2007 05:00 17,5 C 80 % 1013,2 hPa 0,0 l/m 3,8 km/h (1 Bft) N-NO 0,00 h 0,025 mm 0 W/m 14,1 C 17,5 C 5,4 km/h (1 Bft)
01/09/2007 06:00 17,8 C 77 % 1013,2 hPa 0,0 l/m 3,3 km/h (1 Bft) NO 0,00 h 0,025 mm 5 W/m 13,6 C 17,8 C 5,2 km/h (1 Bft)
01/09/2007 07:00 18,1 C 75 % 1013,4 hPa 0,0 l/m 2,9 km/h (1 Bft) N-NO 0,00 h 0,025 mm 23 W/m 13,7 C 18,1 C 5,3 km/h (1 Bft)
01/09/2007 08:00 20,6 C 68 % 1013,8 hPa 0,0 l/m 0,2 km/h (0 Bft) N-NO 0,35 h 0,025 mm 134 W/m 14,6 C 20,6 C 1,4 km/h (1 Bft)
01/09/2007 09:00 24,2 C 54 % 1014,1 hPa 0,0 l/m 2,8 km/h (1 Bft) E 1,00 h 0,076 mm 374 W/m 14,2 C 24,2 C 4,9 km/h (1 Bft)
01/09/2007 10:00 25,7 C 47 % 1014,4 hPa 0,0 l/m 6,7 km/h (2 Bft) E 1,00 h 0,254 mm 523 W/m 13,4 C 25,7 C 11,0 km/h (2 Bft)
01/09/2007 11:00 26,0 C 47 % 1014,7 hPa 0,0 l/m 11,0 km/h (2 Bft) S 1,00 h 0,406 mm 637 W/m 13,7 C 26,0 C 16,8 km/h (3 Bft)
01/09/2007 12:00 26,7 C 46 % 1014,6 hPa 0,0 l/m 10,4 km/h (2 Bft) S 1,00 h 0,508 mm 719 W/m 14,1 C 26,7 C 17,2 km/h (3 Bft)
01/09/2007 13:00 26,9 C 46 % 1014,6 hPa 0,0 l/m 10,0 km/h (2 Bft) S 1,00 h 0,559 mm 746 W/m 14,5 C 26,9 C 17,0 km/h (3 Bft)
01/09/2007 14:00 26,4 C 46 % 1014,6 hPa 0,0 l/m 11,5 km/h (2 Bft) S-SE 1,00 h 0,559 mm 718 W/m 13,8 C 26,4 C 18,1 km/h (3 Bft)
01/09/2007 15:00 26,8 C 43 % 1014,6 hPa 0,0 l/m 8,4 km/h (2 Bft) E 1,00 h 0,559 mm 643 W/m 13,3 C 26,8 C 14,0 km/h (3 Bft)
01/09/2007 16:00 26,1 C 45 % 1014,3 hPa 0,0 l/m 9,7 km/h (2 Bft) E 1,00 h 0,508 mm 519 W/m 13,1 C 26,1 C 15,8 km/h (3 Bft)
01/09/2007 17:00 25,8 C 47 % 1014,1 hPa 0,0 l/m 5,8 km/h (2 Bft) E 0,80 h 0,432 mm 381 W/m 13,6 C 25,8 C 10,0 km/h (2 Bft)
01/09/2007 18:00 24,8 C 51 % 1013,9 hPa 0,0 l/m 4,3 km/h (1 Bft) S 0,98 h 0,305 mm 210 W/m 14,0 C 24,8 C 7,2 km/h (2 Bft)
01/09/2007 19:00 23,6 C 54 % 1013,8 hPa 0,0 l/m 1,0 km/h (0 Bft) E 0,40 h 0,178 mm 52 W/m 13,8 C 23,6 C 2,3 km/h (1 Bft)
01/09/2007 20:00 21,7 C 60 % 1014,1 hPa 0,0 l/m 3,6 km/h (1 Bft) SO 0,00 h 0,051 mm 6 W/m 13,6 C 21,7 C 4,9 km/h (1 Bft)
01/09/2007 21:00 21,0 C 61 % 1014,6 hPa 0,0 l/m 7,8 km/h (2 Bft) O 0,00 h 0,025 mm 0 W/m 13,3 C 21,0 C 11,0 km/h (2 Bft)
01/09/2007 22:00 20,4 C 61 % 1014,7 hPa 0,0 l/m 6,6 km/h (2 Bft) O-NO 0,00 h 0,076 mm 0 W/m 12,8 C 20,4 C 9,3 km/h (2 Bft)
01/09/2007 23:00 19,6 C 65 % 1014,9 hPa 0,0 l/m 4,0 km/h (1 Bft) NO 0,00 h 0,076 mm 0 W/m 12,7 C 19,6 C 6,5 km/h (2 Bft)
02/09/2007 00:00 20,1 C 63 % 1014,8 hPa 0,0 l/m 4,2 km/h (1 Bft) NO 0,00 h 0,051 mm 0 W/m 12,7 C 20,1 C 6,4 km/h (2 Bft)
02/09/2007 01:00 19,9 C 63 % 1014,7 hPa 0,0 l/m 4,2 km/h (1 Bft) NO 0,00 h 0,051 mm 0 W/m 12,6 C 19,9 C 6,3 km/h (2 Bft)
02/09/2007 02:00 19,7 C 63 % 1014,7 hPa 0,0 l/m 2,5 km/h (1 Bft) NO 0,00 h 0,051 mm 0 W/m 12,5 C 19,7 C 3,9 km/h (1 Bft)
02/09/2007 03:00 19,1 C 65 % 1014,8 hPa 0,0 l/m 0,7 km/h (0 Bft) NO 0,00 h 0,051 mm 0 W/m 12,4 C 19,1 C 1,3 km/h (1 Bft)
02/09/2007 04:00 18,8 C 67 % 1014,8 hPa 0,0 l/m 4,2 km/h (1 Bft) NO 0,00 h 0,025 mm 0 W/m 12,6 C 18,8 C 6,3 km/h (2 Bft)
02/09/2007 05:00 19,5 C 65 % 1014,7 hPa 0,0 l/m 3,3 km/h (1 Bft) NO 0,00 h 0,051 mm 0 W/m 12,7 C 19,5 C 4,9 km/h (1 Bft)
02/09/2007 06:00 19,7 C 64 % 1014,9 hPa 0,0 l/m 4,1 km/h (1 Bft) O 0,00 h 0,051 mm 5 W/m 12,6 C 19,7 C 5,7 km/h (1 Bft)
02/09/2007 07:00 19,1 C 66 % 1015,5 hPa 0,0 l/m 1,5 km/h (1 Bft) O 0,00 h 0,025 mm 29 W/m 12,5 C 19,1 C 3,1 km/h (1 Bft)
02/09/2007 08:00 20,1 C 64 % 1015,9 hPa 0,0 l/m 0,1 km/h (0 Bft) N 0,03 h 0,025 mm 94 W/m 13,1 C 20,1 C 0,4 km/h (0 Bft)
02/09/2007 09:00 22,9 C 56 % 1015,9 hPa 0,0 l/m 5,6 km/h (1 Bft) E 0,87 h 0,051 mm 337 W/m 13,6 C 22,9 C 8,3 km/h (2 Bft)
02/09/2007 10:00 25,4 C 50 % 1016,0 hPa 0,0 l/m 5,1 km/h (1 Bft) E 1,00 h 0,254 mm 512 W/m 14,1 C 25,4 C 8,4 km/h (2 Bft)
02/09/2007 11:00 26,7 C 47 % 1015,8 hPa 0,0 l/m 6,1 km/h (2 Bft) E 1,00 h 0,356 mm 635 W/m 14,4 C 26,7 C 10,7 km/h (2 Bft)
02/09/2007 12:00 27,4 C 46 % 1015,5 hPa 0,0 l/m 10,4 km/h (2 Bft) E 1,00 h 0,457 mm 714 W/m 14,8 C 27,4 C 15,8 km/h (3 Bft)
02/09/2007 13:00 27,0 C 47 % 1015,3 hPa 0,0 l/m 10,8 km/h (2 Bft) E 1,00 h 0,559 mm 741 W/m 14,8 C 27,0 C 15,9 km/h (3 Bft)
02/09/2007 14:00 26,8 C 54 % 1015,2 hPa 0,0 l/m 9,3 km/h (2 Bft) E 1,00 h 0,584 mm 712 W/m 16,6 C 26,8 C 14,8 km/h (3 Bft)
02/09/2007 15:00 26,6 C 54 % 1015,0 hPa 0,0 l/m 8,9 km/h (2 Bft) E 1,00 h 0,533 mm 627 W/m 16,5 C 26,6 C 14,2 km/h (3 Bft)
02/09/2007 16:00 25,7 C 61 % 1014,7 hPa 0,0 l/m 9,0 km/h (2 Bft) E 1,00 h 0,483 mm 492 W/m 17,7 C 25,7 C 14,9 km/h (3 Bft)
02/09/2007 17:00 25,5 C 63 % 1014,4 hPa 0,0 l/m 6,8 km/h (2 Bft) E 0,97 h 0,381 mm 352 W/m 17,9 C 25,5 C 10,4 km/h (2 Bft)
02/09/2007 18:00 24,4 C 65 % 1014,1 hPa 0,0 l/m 4,0 km/h (1 Bft) E-SE 0,95 h 0,279 mm 216 W/m 17,3 C 24,4 C 6,8 km/h (2 Bft)
02/09/2007 19:00 22,8 C 67 % 1014,0 hPa 0,0 l/m 2,2 km/h (1 Bft) S-SE 0,13 h 0,152 mm 40 W/m 16,2 C 22,8 C 4,2 km/h (1 Bft)
02/09/2007 20:00 21,0 C 77 % 1014,0 hPa 0,0 l/m 0,0 km/h (0 Bft) N 0,00 h 0,051 mm 5 W/m 16,8 C 21,0 C 0,3 km/h (0 Bft)
02/09/2007 21:00 20,0 C 80 % 1014,2 hPa 0,0 l/m 0,6 km/h (0 Bft) S-SE 0,00 h 0,000 mm 0 W/m 16,6 C 20,0 C 1,4 km/h (1 Bft)
02/09/2007 22:00 19,4 C 80 % 1014,1 hPa 0,0 l/m 2,3 km/h (1 Bft) SO 0,00 h 0,025 mm 0 W/m 15,9 C 19,4 C 3,7 km/h (1 Bft)
02/09/2007 23:00 18,8 C 82 % 1014,0 hPa 0,0 l/m 0,4 km/h (0 Bft) O-NO 0,00 h 0,025 mm 0 W/m 15,6 C 18,8 C 1,0 km/h (0 Bft)
Min-Date _ 01/09/07 27/08/07 30/08/07 - 27/08/07 - - - - 27/08/07 01/09/07 27/08/07
_ Min-Heure 04:32 12:51 16:45 - 00:00 - - - - 03:41 04:32 00:00
Minimum _ 17,4 C 29 % 1003,3 hPa - 0,0 km/h (0 Bft) - - - - 11,1 C 17,4 C 0,0 km/h (0 Bft)
Max-Date _ 27/08/07 31/08/07 27/08/07 31/08/07 30/08/07 - 27/08/07 30/08/07 31/08/07 29/08/07 27/08/07 30/08/07
_ Max-Heure 12:53 00:06 00:00 00:45 13:31 - 06:59 14:00 14:49 19:17 12:53 13:31
Maximum _ 34,1 C 93 % 1018,6 hPa 0,4 l/m 35,4 km/h
S (5 Bft)
- 0,02 h 0,737 mm 965 W/m 21,4 C 34,1 C 45,1 km/h
S (6 Bft)
Moyenne _ 23,7 C 65 % 1011,7 hPa #1,0 l/m 5,5 km/h (1 Bft) E #58:50 h #30,922 mm 329 W/m 16,2 C 23,7 C 8,6 km/h (2 Bft)
Roquefort les pins